Time;durP1;ratioP1;P1;durP2;ratioP2;P2;SDS_P1;SDS_P2;PMS_P1;PMS_P2;Temp;Humidity;BMP_temperature;BMP_pressure;BME280_temperature;BME280_humidity;BME280_pressure;Samples;Min_cycle;Max_cycle;Signal;HPM_P1;HPM_P2
2023/04/06 00:02:17;;;;;;;13.75;7.13;;;;;;;-1.59;83.09;97452.38;5027155;28;20048;-58
2023/04/06 00:04:44;;;;;;;11.68;7.28;;;;;;;-1.46;82.59;97453.66;5024130;28;20697;-59
2023/04/06 00:07:10;;;;;;;13.75;7.63;;;;;;;-1.46;82.81;97453.66;5024480;28;20771;-58
2023/04/06 00:09:37;;;;;;;10.68;6.97;;;;;;;-1.35;82.15;97447.97;5023784;28;20037;-56
2023/04/06 00:12:03;;;;;;;15.10;8.07;;;;;;;-1.49;82.91;97451.34;5026616;28;20041;-57
2023/04/06 00:14:30;;;;;;;11.10;8.18;;;;;;;-1.49;82.96;97449.50;5023701;28;20047;-58
2023/04/06 00:16:57;;;;;;;12.52;7.13;;;;;;;-1.51;82.99;97448.84;5025428;28;20046;-58
2023/04/06 00:19:23;;;;;;;12.98;7.20;;;;;;;-1.60;83.58;97447.22;5022936;28;20099;-58
2023/04/06 00:21:50;;;;;;;15.68;8.43;;;;;;;-1.60;83.39;97436.59;5026241;28;20049;-58
2023/04/06 00:24:16;;;;;;;12.90;7.25;;;;;;;-1.49;82.21;97438.91;5024137;28;20069;-59
2023/04/06 00:26:43;;;;;;;10.98;7.47;;;;;;;-1.60;83.26;97437.44;5025288;28;20167;-58
2023/04/06 00:29:10;;;;;;;13.63;7.03;;;;;;;-1.50;82.80;97437.25;5026719;28;20045;-58
2023/04/06 00:31:36;;;;;;;15.57;7.45;;;;;;;-1.49;82.78;97438.91;5023667;28;20029;-58
2023/04/06 00:34:03;;;;;;;13.00;6.60;;;;;;;-1.53;82.62;97432.28;5024521;28;20049;-58
2023/04/06 00:36:30;;;;;;;11.63;7.82;;;;;;;-1.61;83.52;97434.97;5025817;28;20094;-59
2023/04/06 00:38:57;;;;;;;12.18;7.20;;;;;;;-1.60;84.29;97434.78;5025316;28;20116;-58
2023/04/06 00:41:23;;;;;;;15.65;7.85;;;;;;;-1.72;83.92;97433.50;5025154;28;20033;-57
2023/04/06 00:43:50;;;;;;;10.65;7.20;;;;;;;-1.60;83.65;97431.28;5025265;28;20103;-58
2023/04/06 00:46:18;;;;;;;11.95;6.80;;;;;;;-1.52;82.73;97422.50;5023927;28;20049;-57
2023/04/06 00:48:45;;;;;;;11.52;7.03;;;;;;;-1.61;82.99;97419.03;5021364;28;20038;-58
2023/04/06 00:51:11;;;;;;;11.98;7.38;;;;;;;-1.47;82.00;97422.78;5024656;28;20034;-58
2023/04/06 00:53:38;;;;;;;15.68;8.32;;;;;;;-1.52;82.10;97425.94;5027583;28;20048;-58
2023/04/06 00:56:05;;;;;;;12.02;7.20;;;;;;;-1.52;82.78;97422.50;5024322;28;20528;-59
2023/04/06 00:58:43;;;;;;;11.98;7.38;;;;;;;-1.59;83.00;97417.00;5028700;28;20049;-56
2023/04/06 01:01:10;;;;;;;11.23;6.70;;;;;;;-1.77;83.76;97428.69;5024690;28;20041;-54
2023/04/06 01:03:37;;;;;;;11.57;6.88;;;;;;;-1.72;83.58;97421.06;5024911;28;20041;-53
2023/04/06 01:06:04;;;;;;;12.15;7.15;;;;;;;-1.73;83.38;97416.75;5028215;28;20053;-56
2023/04/06 01:08:36;;;;;;;12.30;7.65;;;;;;;-1.85;84.22;97413.63;5027601;28;20043;-56
2023/04/06 01:11:15;;;;;;;13.05;7.07;;;;;;;-1.72;84.94;97415.75;5026818;28;20282;-59
2023/04/06 01:13:41;;;;;;;13.80;7.53;;;;;;;-1.93;85.57;97411.00;5019947;28;20042;-59
2023/04/06 01:16:16;;;;;;;12.57;7.55;;;;;;;-2.04;85.61;97416.69;5025144;28;20132;-59
2023/04/06 01:18:50;;;;;;;10.85;7.13;;;;;;;-2.08;86.03;97413.53;5025518;28;20513;-59
2023/04/06 01:21:25;;;;;;;13.65;7.45;;;;;;;-2.13;86.12;97406.09;5025097;28;20037;-59
2023/04/06 01:24:07;;;;;;;13.57;7.97;;;;;;;-2.30;87.12;97415.91;5025256;28;20053;-58
2023/04/06 01:26:52;;;;;;;12.93;7.90;;;;;;;-2.36;87.91;97414.75;5019292;28;20144;-59
2023/04/06 01:29:19;;;;;;;14.85;8.50;;;;;;;-2.40;88.27;97408.13;5026280;28;20536;-58
2023/04/06 01:31:46;;;;;;;14.05;8.05;;;;;;;-2.31;87.45;97408.13;5018048;28;20044;-58
2023/04/06 01:34:13;;;;;;;11.35;7.65;;;;;;;-2.36;87.44;97409.44;5026385;28;20045;-58
2023/04/06 01:36:40;;;;;;;13.23;7.72;;;;;;;-2.39;87.50;97406.31;5026002;28;20041;-56
2023/04/06 01:39:22;;;;;;;12.52;7.18;;;;;;;-2.33;87.44;97407.47;5023040;28;20038;-57
2023/04/06 01:41:48;;;;;;;13.32;7.43;;;;;;;-2.31;87.56;97395.69;5019654;28;20037;-58
2023/04/06 01:44:18;;;;;;;14.00;7.88;;;;;;;-2.14;86.30;97393.81;5026518;28;20045;-58
2023/04/06 01:46:50;;;;;;;12.27;7.68;;;;;;;-2.09;86.03;97402.09;5024128;28;20052;-59
2023/04/06 01:49:18;;;;;;;13.05;7.82;;;;;;;-1.97;84.81;97397.28;5024643;28;20041;-58
2023/04/06 01:51:50;;;;;;;9.20;6.32;;;;;;;-2.01;85.00;97393.31;5020482;28;20578;-58
2023/04/06 01:54:16;;;;;;;13.18;7.50;;;;;;;-1.81;84.47;97395.53;5027624;28;20068;-58
2023/04/06 01:57:01;;;;;;;14.30;7.93;;;;;;;-1.68;82.87;97386.19;5028051;28;20118;-59
2023/04/06 01:59:40;;;;;;;12.90;8.60;;;;;;;-1.77;84.07;97383.56;5025496;28;20049;-58
2023/04/06 02:02:15;;;;;;;12.60;7.10;;;;;;;-1.74;83.22;97390.34;5021796;28;20042;-58
2023/04/06 02:04:51;;;;;;;13.55;7.05;;;;;;;-1.87;83.68;97386.47;5030778;28;20737;-56
2023/04/06 02:07:17;;;;;;;13.27;7.50;;;;;;;-1.84;84.09;97379.97;5026823;28;20043;-58
2023/04/06 02:09:44;;;;;;;13.70;8.23;;;;;;;-2.00;85.21;97386.16;5025487;28;20050;-57
2023/04/06 02:12:19;;;;;;;12.45;8.15;;;;;;;-2.05;85.14;97386.69;5025892;28;20049;-58
2023/04/06 02:14:45;;;;;;;13.13;8.45;;;;;;;-1.99;85.28;97382.53;5026056;28;20129;-58
2023/04/06 02:17:12;;;;;;;15.32;9.35;;;;;;;-1.95;84.85;97378.53;5026204;28;20508;-58
2023/04/06 02:19:38;;;;;;;14.73;8.50;;;;;;;-1.97;85.18;97377.84;5027620;28;20733;-56
2023/04/06 02:22:05;;;;;;;12.13;7.82;;;;;;;-2.00;84.91;97379.03;5026654;28;20127;-58
2023/04/06 02:24:32;;;;;;;14.98;9.35;;;;;;;-2.04;85.71;97383.03;5026479;28;20041;-58
2023/04/06 02:26:58;;;;;;;14.02;8.82;;;;;;;-2.03;85.42;97381.19;5019308;28;20072;-58
2023/04/06 02:29:25;;;;;;;14.45;7.78;;;;;;;-2.00;85.38;97378.19;5028737;28;20045;-58
2023/04/06 02:31:51;;;;;;;15.38;8.45;;;;;;;-1.90;84.86;97375.34;5025555;28;20064;-57
2023/04/06 02:34:19;;;;;;;12.15;7.57;;;;;;;-1.97;85.14;97383.16;5022562;28;20056;-58
2023/04/06 02:36:49;;;;;;;12.20;7.75;;;;;;;-1.92;84.74;97369.38;5017989;28;20548;-57
2023/04/06 02:39:17;;;;;;;14.10;8.93;;;;;;;-1.91;84.47;97377.19;5026837;28;20056;-54
2023/04/06 02:41:44;;;;;;;14.68;8.25;;;;;;;-1.90;84.43;97367.38;5025143;28;20119;-57
2023/04/06 02:44:14;;;;;;;17.92;9.23;;;;;;;-1.87;84.54;97364.38;5023346;28;20052;-56
2023/04/06 02:46:42;;;;;;;11.90;7.50;;;;;;;-1.85;84.32;97359.72;5020975;28;20053;-55
2023/04/06 02:49:09;;;;;;;11.68;8.93;;;;;;;-1.90;84.40;97362.91;5026163;28;20049;-55
2023/04/06 02:51:36;;;;;;;12.85;8.35;;;;;;;-1.87;84.58;97364.38;5024965;28;20043;-57
2023/04/06 02:54:26;;;;;;;14.10;7.35;;;;;;;-1.89;84.29;97367.22;5015439;28;20057;-55
2023/04/06 02:56:52;;;;;;;9.85;6.60;;;;;;;-1.86;84.08;97369.53;5026058;28;20072;-57
2023/04/06 02:59:20;;;;;;;13.32;8.15;;;;;;;-1.90;84.46;97364.72;5021012;28;20417;-57
2023/04/06 03:01:58;;;;;;;13.60;8.23;;;;;;;-1.99;85.06;97366.59;5018003;28;20042;-54
2023/04/06 03:04:25;;;;;;;12.13;7.30;;;;;;;-2.05;85.09;97369.91;5024549;28;20522;-58
2023/04/06 03:06:54;;;;;;;15.25;7.45;;;;;;;-2.11;85.60;97363.47;5022859;28;20456;-58
2023/04/06 03:09:32;;;;;;;11.68;7.20;;;;;;;-2.09;85.78;97369.44;5023054;28;20041;-56
2023/04/06 03:11:59;;;;;;;11.43;7.13;;;;;;;-2.06;85.24;97365.63;5024326;28;20442;-58
2023/04/06 03:14:28;;;;;;;11.77;7.72;;;;;;;-2.06;85.08;97358.50;5023077;28;20057;-57
2023/04/06 03:16:55;;;;;;;9.98;6.45;;;;;;;-2.07;85.19;97363.97;5026349;28;20037;-54
2023/04/06 03:19:24;;;;;;;13.00;7.80;;;;;;;-2.11;84.78;97361.66;5023837;28;20055;-57
2023/04/06 03:21:50;;;;;;;12.73;7.45;;;;;;;-2.17;85.68;97357.03;5021382;28;20049;-56
2023/04/06 03:24:19;;;;;;;13.23;8.23;;;;;;;-2.36;86.52;97360.91;5025008;28;20053;-57
2023/04/06 03:26:46;;;;;;;15.93;8.80;;;;;;;-2.35;86.71;97358.06;5026976;28;20041;-57
2023/04/06 03:29:13;;;;;;;12.50;7.85;;;;;;;-2.35;86.59;97366.00;5024746;28;20659;-57
2023/04/06 03:31:40;;;;;;;13.95;8.30;;;;;;;-2.31;86.59;97358.56;5020327;28;20409;-55
2023/04/06 03:34:18;;;;;;;11.27;7.38;;;;;;;-2.32;86.12;97362.19;5026770;28;20091;-52
2023/04/06 03:36:45;;;;;;;12.82;7.55;;;;;;;-2.29;86.57;97355.75;5026285;28;20057;-57
2023/04/06 03:39:17;;;;;;;;;;;;;;;-2.33;86.45;97365.84;5024504;28;20143;-56
2023/04/06 03:41:44;;;;;;;12.82;8.70;;;;;;;-2.32;86.78;97367.50;5024308;28;20011;-56
2023/04/06 03:44:29;;;;;;;12.95;8.95;;;;;;;-2.46;87.16;97363.75;5024977;28;20042;-56
2023/04/06 03:46:56;;;;;;;12.48;7.60;;;;;;;-2.61;88.29;97382.16;5025837;28;20103;-57
2023/04/06 03:49:23;;;;;;;14.57;9.82;;;;;;;-2.65;88.64;97381.66;5022285;28;20061;-56
2023/04/06 03:51:52;;;;;;;14.23;9.18;;;;;;;-2.68;88.96;97375.84;5020538;28;20049;-57
2023/04/06 03:54:19;;;;;;;12.57;8.23;;;;;;;-2.67;88.91;97385.47;5028572;28;20603;-57
2023/04/06 03:56:45;;;;;;;15.93;9.00;;;;;;;-2.69;88.82;97388.28;5023901;28;20059;-56
2023/04/06 03:59:12;;;;;;;14.18;9.18;;;;;;;-2.70;88.75;97386.63;5026956;28;20115;-54
2023/04/06 04:01:39;;;;;;;16.70;9.10;;;;;;;-2.61;88.66;97392.75;5023422;28;20041;-56
2023/04/06 04:04:05;;;;;;;12.23;8.57;;;;;;;-2.57;88.04;97386.13;5025360;28;20440;-56
2023/04/06 04:06:32;;;;;;;19.92;9.18;;;;;;;-2.54;88.07;97393.72;5015579;28;20041;-57
2023/04/06 04:08:58;;;;;;;14.00;7.78;;;;;;;-2.52;87.87;97389.09;5020865;28;20505;-56
2023/04/06 04:11:25;;;;;;;13.02;7.50;;;;;;;-2.50;87.67;97392.41;5026231;28;20091;-57
2023/04/06 04:13:56;;;;;;;14.45;8.00;;;;;;;-2.46;87.48;97389.41;5016054;28;20061;-54
2023/04/06 04:16:23;;;;;;;13.98;7.00;;;;;;;-2.49;87.72;97394.06;5024600;28;20041;-56
2023/04/06 04:18:50;;;;;;;13.35;8.68;;;;;;;-2.59;87.98;97389.94;5023548;28;20064;-57
2023/04/06 04:21:16;;;;;;;16.20;9.35;;;;;;;-2.66;88.48;97390.59;5025005;28;20030;-56
2023/04/06 04:23:43;;;;;;;13.02;8.15;;;;;;;-2.62;88.47;97404.34;5025306;28;20575;-56
2023/04/06 04:26:10;;;;;;;11.50;8.57;;;;;;;-2.64;88.37;97393.94;5025532;28;20091;-55
2023/04/06 04:28:37;;;;;;;14.00;9.75;;;;;;;-2.68;88.91;97405.03;5023896;28;20584;-54
2023/04/06 04:31:03;;;;;;;14.90;9.38;;;;;;;-2.73;89.06;97394.91;5031294;28;20554;-56
2023/04/06 04:33:33;;;;;;;14.55;9.40;;;;;;;-2.76;89.57;97396.06;5033132;28;20036;-57
2023/04/06 04:36:02;;;;;;;15.40;9.60;;;;;;;-2.61;88.59;97403.38;5035743;28;20044;-57
2023/04/06 04:38:36;;;;;;;14.18;9.02;;;;;;;-2.59;88.23;97401.38;5035150;28;20128;-54
2023/04/06 04:41:02;;;;;;;14.27;8.38;;;;;;;-2.56;88.18;97394.88;5035202;28;20425;-57
2023/04/06 04:43:29;;;;;;;13.05;7.47;;;;;;;-2.53;87.50;97394.56;5031827;28;20041;-55
2023/04/06 04:46:00;;;;;;;13.25;8.82;;;;;;;-2.53;87.30;97392.75;5021470;28;20058;-55
2023/04/06 04:48:39;;;;;;;12.68;7.40;;;;;;;-2.51;87.22;97404.00;5027711;28;20869;-56
2023/04/06 04:51:07;;;;;;;14.43;8.52;;;;;;;-2.46;86.94;97395.56;5024609;28;20046;-59
2023/04/06 04:53:50;;;;;;;12.60;6.45;;;;;;;-2.45;86.92;97405.16;5031218;28;20851;-56
2023/04/06 04:56:25;;;;;;;15.02;8.40;;;;;;;-2.43;86.96;97402.34;5027838;28;20073;-57
2023/04/06 04:58:56;;;;;;;15.00;8.05;;;;;;;-2.42;86.86;97406.66;5019257;28;20503;-59
2023/04/06 05:01:25;;;;;;;14.85;7.82;;;;;;;-2.36;86.30;97406.81;5027397;28;20048;-55
2023/04/06 05:03:52;;;;;;;14.00;7.97;;;;;;;-2.43;86.46;97408.47;5011404;28;20561;-56
2023/04/06 05:06:19;;;;;;;10.68;6.68;;;;;;;-2.37;86.49;97406.97;5029751;28;20052;-58
2023/04/06 05:08:45;;;;;;;16.50;8.07;;;;;;;-2.52;87.36;97414.78;5026235;28;20169;-53
2023/04/06 05:11:12;;;;;;;13.73;8.40;;;;;;;-2.52;87.56;97407.66;5027613;28;20060;-57
2023/04/06 05:13:44;;;;;;;14.05;8.25;;;;;;;-2.47;87.56;97406.34;5026770;28;20684;-57
2023/04/06 05:16:16;;;;;;;17.30;9.30;;;;;;;-2.44;87.44;97408.66;5027214;28;20068;-56
2023/04/06 05:18:43;;;;;;;13.30;7.63;;;;;;;-2.43;87.34;97410.31;5025946;28;20049;-55
2023/04/06 05:21:11;;;;;;;13.88;8.57;;;;;;;-2.36;86.79;97416.59;5021872;28;20048;-54
2023/04/06 05:23:53;;;;;;;12.50;7.75;;;;;;;-2.30;86.44;97415.91;5023643;28;20103;-58
2023/04/06 05:26:21;;;;;;;13.75;8.55;;;;;;;-2.22;86.30;97423.84;5026510;28;20069;-58
2023/04/06 05:28:50;;;;;;;13.43;8.32;;;;;;;-2.14;85.93;97414.25;5027747;28;20088;-57
2023/04/06 05:31:17;;;;;;;13.50;8.18;;;;;;;-2.09;85.43;97410.06;5026178;28;20615;-58
2023/04/06 05:33:47;;;;;;;15.30;8.50;;;;;;;-2.09;85.41;97414.56;5026125;28;20042;-58
2023/04/06 05:36:16;;;;;;;13.93;7.13;;;;;;;-2.02;85.20;97415.53;5026420;28;20041;-55
2023/04/06 05:38:45;;;;;;;13.20;7.38;;;;;;;-1.90;84.84;97418.63;5029049;28;20049;-58
2023/04/06 05:41:32;;;;;;;15.65;7.72;;;;;;;-1.87;85.03;97418.31;5029438;28;20041;-55
2023/04/06 05:43:58;;;;;;;14.10;8.13;;;;;;;-1.88;85.14;97416.63;5025023;28;20132;-56
2023/04/06 05:46:26;;;;;;;12.55;8.10;;;;;;;-1.88;84.91;97421.94;5031695;28;20140;-57
2023/04/06 05:48:55;;;;;;;13.52;8.45;;;;;;;-1.87;84.82;97422.78;5018917;28;20577;-58
2023/04/06 05:51:26;;;;;;;15.32;9.10;;;;;;;-1.80;84.68;97415.78;5024199;28;20442;-56
2023/04/06 05:53:53;;;;;;;15.55;8.63;;;;;;;-1.70;84.16;97423.53;5020979;28;20041;-57
2023/04/06 05:56:20;;;;;;;15.93;9.00;;;;;;;-1.57;83.89;97423.84;5025758;28;20969;-58
2023/04/06 05:58:46;;;;;;;17.63;8.77;;;;;;;-1.47;83.41;97431.56;5021059;28;20116;-56
2023/04/06 06:01:17;;;;;;;13.63;7.93;;;;;;;-1.42;82.96;97432.88;5032509;28;20033;-58
2023/04/06 06:03:45;;;;;;;13.52;8.30;;;;;;;-1.41;83.24;97423.94;5024727;28;20040;-56
2023/04/06 06:06:13;;;;;;;13.18;7.65;;;;;;;-1.28;82.55;97431.31;5028617;28;20064;-55
2023/04/06 06:09:00;;;;;;;15.00;9.13;;;;;;;-1.15;81.88;97428.09;5022313;28;20057;-56
2023/04/06 06:11:31;;;;;;;15.13;7.72;;;;;;;-1.03;81.49;97432.00;5011115;28;20041;-57
2023/04/06 06:13:57;;;;;;;12.05;7.20;;;;;;;-0.86;80.89;97426.56;5023595;28;20049;-58
2023/04/06 06:16:24;;;;;;;11.93;7.80;;;;;;;-0.75;81.26;97435.94;5024548;28;20048;-59
2023/04/06 06:18:51;;;;;;;13.70;8.45;;;;;;;-0.70;80.65;97430.94;5025071;28;20057;-58
2023/04/06 06:21:18;;;;;;;12.27;7.65;;;;;;;-0.65;81.20;97428.56;5025506;28;20049;-56
2023/04/06 06:23:44;;;;;;;12.75;7.38;;;;;;;-0.57;80.55;97427.66;5026011;28;20738;-58
2023/04/06 06:26:15;;;;;;;12.07;7.40;;;;;;;-0.42;80.29;97433.88;5028813;28;20049;-58
2023/04/06 06:28:41;;;;;;;14.35;6.80;;;;;;;-0.27;80.35;97427.75;5026052;28;20048;-55
2023/04/06 06:31:10;;;;;;;13.27;8.30;;;;;;;-0.15;79.94;97430.78;5017309;28;20053;-57
2023/04/06 06:33:37;;;;;;;13.25;8.65;;;;;;;-0.08;80.16;97434.38;5024582;28;20344;-56
2023/04/06 06:36:03;;;;;;;12.05;7.88;;;;;;;-0.05;79.19;97434.03;5024931;28;20045;-56
2023/04/06 06:38:30;;;;;;;11.77;7.88;;;;;;;0.01;79.58;97444.94;5025141;28;20055;-58
2023/04/06 06:40:57;;;;;;;13.05;8.05;;;;;;;0.16;79.27;97437.81;5030699;28;20045;-58
2023/04/06 06:43:26;;;;;;;13.13;7.90;;;;;;;0.29;79.10;97433.66;5025062;28;20081;-58
2023/04/06 06:45:59;;;;;;;11.02;6.95;;;;;;;0.44;79.00;97438.97;5027045;28;20053;-59
2023/04/06 06:48:25;;;;;;;13.10;6.80;;;;;;;0.59;78.50;97439.78;5028814;28;20048;-58
2023/04/06 06:50:52;;;;;;;14.68;7.53;;;;;;;0.77;76.34;97435.88;5015449;28;20052;-58
2023/04/06 06:53:20;;;;;;;14.77;8.40;;;;;;;0.95;75.81;97453.34;5023122;28;20115;-58
2023/04/06 06:55:48;;;;;;;12.70;7.97;;;;;;;1.19;75.19;97445.97;5026512;28;20041;-58
2023/04/06 06:58:15;;;;;;;14.55;7.30;;;;;;;1.38;74.40;97448.03;5021003;28;20610;-59
2023/04/06 07:00:42;;;;;;;13.82;8.02;;;;;;;1.51;72.69;97441.16;5027504;28;20041;-57
2023/04/06 07:03:09;;;;;;;15.80;8.23;;;;;;;1.69;72.04;97440.66;5027388;28;20041;-57
2023/04/06 07:05:35;;;;;;;12.82;7.60;;;;;;;1.87;71.09;97440.19;5022194;28;20060;-58
2023/04/06 07:08:02;;;;;;;11.20;6.80;;;;;;;2.07;71.36;97439.53;5019015;28;20042;-56
2023/04/06 07:10:29;;;;;;;12.30;7.85;;;;;;;2.26;69.86;97435.31;5024089;28;20060;-58
2023/04/06 07:12:56;;;;;;;13.45;7.35;;;;;;;2.45;68.61;97431.09;5020424;28;20037;-59
2023/04/06 07:15:22;;;;;;;13.88;7.63;;;;;;;2.65;67.99;97438.38;5021898;28;20056;-58
2023/04/06 07:17:52;;;;;;;11.02;7.13;;;;;;;2.83;65.95;97437.84;5021173;28;20095;-56
2023/04/06 07:20:18;;;;;;;10.85;6.35;;;;;;;3.03;65.45;97436.25;5024855;28;20136;-56
2023/04/06 07:22:45;;;;;;;11.18;6.90;;;;;;;3.18;64.17;97436.06;5026867;28;20095;-58
2023/04/06 07:25:12;;;;;;;12.50;6.05;;;;;;;3.37;65.52;97439.81;5021977;28;20390;-58
2023/04/06 07:27:40;;;;;;;10.43;6.55;;;;;;;3.45;63.78;97438.78;5020660;28;20049;-59
2023/04/06 07:30:07;;;;;;;9.75;6.30;;;;;;;3.50;63.82;97437.16;5024260;28;20049;-59
2023/04/06 07:32:35;;;;;;;10.80;6.30;;;;;;;3.73;60.80;97433.25;5031354;28;20044;-58
2023/04/06 07:35:04;;;;;;;10.90;6.55;;;;;;;3.90;60.73;97436.34;5024634;28;20140;-59
2023/04/06 07:37:30;;;;;;;10.48;6.25;;;;;;;4.08;60.45;97436.72;5023673;28;20049;-57
2023/04/06 07:39:57;;;;;;;9.70;5.85;;;;;;;4.26;59.71;97438.75;5019067;28;20497;-58
2023/04/06 07:42:23;;;;;;;9.15;5.80;;;;;;;4.40;58.41;97435.03;5000274;28;20066;-58
2023/04/06 07:44:50;;;;;;;9.32;5.38;;;;;;;4.55;56.52;97442.81;5024550;28;20077;-58
2023/04/06 07:47:17;;;;;;;11.65;5.38;;;;;;;4.65;56.08;97436.19;5022149;28;20123;-60
2023/04/06 07:49:45;;;;;;;8.40;5.25;;;;;;;4.75;55.57;97441.91;5023077;28;20232;-58
2023/04/06 07:52:11;;;;;;;8.30;5.43;;;;;;;4.89;53.17;97439.16;5025033;28;20681;-59
2023/04/06 07:54:40;;;;;;;10.00;4.82;;;;;;;4.97;54.07;97443.47;5021009;28;20045;-59
2023/04/06 07:57:07;;;;;;;9.27;5.20;;;;;;;5.10;54.43;97445.25;5022355;28;20096;-58
2023/04/06 07:59:33;;;;;;;10.00;5.95;;;;;;;5.37;52.85;97443.25;5013735;28;20120;-58
2023/04/06 08:02:00;;;;;;;9.68;5.75;;;;;;;5.51;52.96;97441.31;5026408;28;20038;-58
2023/04/06 08:04:27;;;;;;;10.07;5.60;;;;;;;5.68;51.32;97440.78;5017422;28;20069;-59
2023/04/06 08:06:53;;;;;;;8.52;5.20;;;;;;;5.82;51.40;97438.81;5021073;28;20060;-60
2023/04/06 08:09:20;;;;;;;9.23;5.70;;;;;;;5.90;51.50;97437.69;5030508;28;20045;-59
2023/04/06 08:11:48;;;;;;;9.80;5.28;;;;;;;6.10;51.10;97443.75;5016270;28;20041;-59
2023/04/06 08:14:15;;;;;;;8.63;5.43;;;;;;;6.16;50.17;97439.31;5028961;28;20041;-59
2023/04/06 08:16:42;;;;;;;8.05;5.03;;;;;;;6.31;49.34;97441.69;5023291;28;20049;-56
2023/04/06 08:19:09;;;;;;;9.68;5.65;;;;;;;6.35;49.83;97434.78;5028223;28;20476;-58
2023/04/06 08:21:35;;;;;;;8.85;5.70;;;;;;;6.42;49.03;97437.44;5023584;28;20053;-57
2023/04/06 08:24:02;;;;;;;11.90;5.90;;;;;;;6.49;49.29;97437.38;5029311;28;20072;-59
2023/04/06 08:26:29;;;;;;;10.38;5.47;;;;;;;6.57;48.57;97430.84;5030381;28;20076;-59
2023/04/06 08:28:56;;;;;;;8.70;5.40;;;;;;;6.69;47.67;97437.13;5025766;28;20053;-57
2023/04/06 08:31:22;;;;;;;10.23;5.55;;;;;;;6.81;45.97;97434.50;5029887;28;20041;-59
2023/04/06 08:33:49;;;;;;;9.85;5.25;;;;;;;6.79;44.77;97425.00;5024914;28;20045;-59
2023/04/06 08:36:16;;;;;;;7.43;4.93;;;;;;;6.89;45.89;97427.97;5034241;28;20041;-60
2023/04/06 08:38:43;;;;;;;8.02;5.43;;;;;;;6.92;45.29;97426.72;5033273;28;20508;-60
2023/04/06 08:41:11;;;;;;;8.90;5.15;;;;;;;6.96;45.17;97428.72;5030476;28;20128;-59
2023/04/06 08:43:46;;;;;;;8.82;4.85;;;;;;;6.96;44.83;97428.72;5028833;28;20086;-59
2023/04/06 08:46:14;;;;;;;11.40;5.45;;;;;;;7.00;44.01;97429.09;5026422;28;20076;-60
2023/04/06 08:48:42;;;;;;;10.93;5.10;;;;;;;7.08;44.62;97428.75;5025179;28;20048;-59
2023/04/06 08:51:10;;;;;;;10.55;5.78;;;;;;;7.16;45.76;97422.25;5031560;28;20045;-58
2023/04/06 08:53:37;;;;;;;8.55;5.43;;;;;;;7.42;46.04;97425.63;5032276;28;20033;-58
2023/04/06 08:56:04;;;;;;;9.75;5.53;;;;;;;7.53;44.94;97427.50;5029562;28;20532;-59
2023/04/06 08:58:36;;;;;;;8.63;5.03;;;;;;;7.58;43.92;97437.59;5030190;28;20040;-56
2023/04/06 09:01:12;;;;;;;9.77;5.20;;;;;;;7.58;43.17;97424.13;5024760;28;20041;-58
2023/04/06 09:03:40;;;;;;;10.80;5.45;;;;;;;7.45;42.46;97427.88;5034678;28;20051;-58
2023/04/06 09:06:08;;;;;;;9.25;5.57;;;;;;;7.45;44.02;97424.34;5028185;28;20548;-59
2023/04/06 09:08:40;;;;;;;12.00;5.88;;;;;;;7.55;43.64;97422.72;5031966;28;20045;-57
2023/04/06 09:11:06;;;;;;;;;;;;;;;7.73;43.34;97426.38;5025028;28;20540;-58
2023/04/06 09:13:49;;;;;;;9.13;5.13;;;;;;;7.86;42.72;97427.22;5029443;28;19925;-58
2023/04/06 09:16:16;;;;;;;8.18;5.43;;;;;;;7.87;41.44;97431.56;5028181;28;20485;-58
2023/04/06 09:18:44;;;;;;;10.38;6.07;;;;;;;7.72;40.83;97432.84;5024815;28;20045;-58
2023/04/06 09:21:10;;;;;;;8.27;5.05;;;;;;;7.60;41.76;97432.00;5033914;28;20049;-56
2023/04/06 09:23:38;;;;;;;8.10;5.55;;;;;;;7.83;40.82;97435.75;5029143;28;20033;-57
2023/04/06 09:26:13;;;;;;;10.73;6.70;;;;;;;7.90;39.75;97431.94;5030821;28;20528;-56
2023/04/06 09:28:57;;;;;;;11.07;6.70;;;;;;;7.87;39.59;97429.69;5029759;28;20616;-57
2023/04/06 09:31:26;;;;;;;12.10;6.45;;;;;;;7.92;39.57;97426.28;5027120;28;20045;-59
2023/04/06 09:33:54;;;;;;;9.88;5.97;;;;;;;7.90;39.87;97418.44;5031697;28;20045;-59
2023/04/06 09:36:33;;;;;;;10.05;6.00;;;;;;;7.92;39.55;97421.72;5028538;28;20091;-56
2023/04/06 09:39:01;;;;;;;9.18;5.68;;;;;;;7.96;40.20;97427.44;5023310;28;20129;-58
2023/04/06 09:41:29;;;;;;;10.30;5.45;;;;;;;8.07;40.50;97421.25;5027707;28;20052;-57
2023/04/06 09:44:09;;;;;;;10.55;6.30;;;;;;;8.32;40.76;97417.50;5032848;28;20574;-58
2023/04/06 09:46:44;;;;;;;10.88;5.78;;;;;;;8.38;39.52;97421.13;5026244;28;20068;-58
2023/04/06 09:49:27;;;;;;;12.82;6.30;;;;;;;8.39;39.06;97420.06;5024401;28;20130;-59
2023/04/06 09:51:58;;;;;;;8.75;6.10;;;;;;;8.34;38.54;97411.88;5028640;28;20044;-59
2023/04/06 09:54:29;;;;;;;9.45;5.57;;;;;;;8.26;40.16;97420.31;5026611;28;20072;-60
2023/04/06 09:57:17;;;;;;;10.03;6.20;;;;;;;8.38;39.94;97413.03;5029864;28;20072;-57
2023/04/06 09:59:52;;;;;;;9.80;6.50;;;;;;;8.20;38.55;97414.81;5027039;28;20288;-56
2023/04/06 10:02:35;;;;;;;9.93;6.03;;;;;;;8.28;39.67;97418.19;5027756;28;20386;-60
2023/04/06 10:05:04;;;;;;;9.35;6.03;;;;;;;8.42;39.00;97413.38;5025680;28;20080;-60
2023/04/06 10:07:32;;;;;;;9.80;6.30;;;;;;;8.45;39.09;97416.41;5024230;28;20124;-58
2023/04/06 10:10:01;;;;;;;11.20;6.25;;;;;;;8.55;37.30;97410.44;5028528;28;20046;-59
2023/04/06 10:12:28;;;;;;;11.57;6.88;;;;;;;8.59;37.91;97400.81;5022357;28;20555;-60
2023/04/06 10:14:56;;;;;;;11.15;6.45;;;;;;;8.68;38.01;97412.06;5030149;28;20046;-59
2023/04/06 10:17:25;;;;;;;12.63;7.28;;;;;;;8.58;36.37;97411.84;5020620;28;20107;-60
2023/04/06 10:19:53;;;;;;;11.70;7.22;;;;;;;8.71;38.75;97414.28;5022332;28;20134;-59
2023/04/06 10:22:35;;;;;;;13.27;7.40;;;;;;;8.70;37.40;97403.75;5030081;28;20057;-60
2023/04/06 10:25:02;;;;;;;9.85;6.68;;;;;;;9.01;37.47;97404.31;5018749;28;20042;-59
2023/04/06 10:27:30;;;;;;;13.05;7.47;;;;;;;9.03;36.22;97401.38;5022308;28;20045;-60
2023/04/06 10:30:02;;;;;;;11.10;7.18;;;;;;;9.04;36.36;97397.63;5016666;28;20058;-60
2023/04/06 10:32:37;;;;;;;10.65;6.72;;;;;;;8.90;36.18;97410.59;5021428;28;20038;-60
2023/04/06 10:35:07;;;;;;;10.95;7.25;;;;;;;8.93;35.44;97402.00;5026262;28;20103;-58
2023/04/06 10:37:53;;;;;;;11.80;6.43;;;;;;;8.97;35.53;97404.00;5025542;28;20050;-58
2023/04/06 10:40:23;;;;;;;9.38;6.57;;;;;;;9.13;34.45;97404.28;5025136;28;20048;-60
2023/04/06 10:42:51;;;;;;;9.75;6.38;;;;;;;8.92;34.60;97401.19;5032444;28;20052;-61
2023/04/06 10:45:26;;;;;;;12.10;7.28;;;;;;;8.94;35.59;97398.25;5023811;28;20049;-58
2023/04/06 10:47:53;;;;;;;11.93;7.03;;;;;;;9.09;36.41;97395.84;5024610;28;20052;-60
2023/04/06 10:50:21;;;;;;;9.02;6.35;;;;;;;9.40;36.04;97397.47;5025153;28;20089;-60
2023/04/06 10:52:59;;;;;;;11.38;6.63;;;;;;;9.58;35.65;97391.81;5032483;28;20047;-59
2023/04/06 10:55:28;;;;;;;11.38;7.38;;;;;;;9.37;35.13;97390.66;5023802;28;20444;-59
2023/04/06 10:57:55;;;;;;;10.68;6.82;;;;;;;9.61;34.41;97401.31;5025440;28;20041;-57
2023/04/06 11:00:21;;;;;;;10.25;6.72;;;;;;;9.58;33.60;97391.81;5027896;28;20045;-59
2023/04/06 11:02:48;;;;;;;9.85;6.40;;;;;;;9.61;34.31;97395.91;5024060;28;20124;-60
2023/04/06 11:05:16;;;;;;;11.73;7.15;;;;;;;9.67;33.80;97386.00;5020844;28;20041;-58
2023/04/06 11:07:56;;;;;;;10.40;6.22;;;;;;;9.69;34.42;97384.69;5021747;28;20084;-58
2023/04/06 11:10:23;;;;;;;11.32;6.45;;;;;;;9.86;34.48;97384.69;5026170;28;20128;-59
2023/04/06 11:12:54;;;;;;;10.80;6.45;;;;;;;9.96;33.60;97388.63;5025430;28;20632;-57
2023/04/06 11:15:21;;;;;;;11.57;7.40;;;;;;;9.78;33.69;97377.00;5028150;28;20144;-58
2023/04/06 11:17:49;;;;;;;11.18;6.80;;;;;;;9.86;33.65;97373.03;5024786;28;20045;-56
2023/04/06 11:20:15;;;;;;;8.77;6.05;;;;;;;10.13;33.13;97375.06;5033106;28;20033;-58
2023/04/06 11:22:50;;;;;;;8.70;6.00;;;;;;;10.44;33.09;97366.53;5022461;28;20125;-57
2023/04/06 11:25:17;;;;;;;9.32;5.40;;;;;;;10.65;32.40;97367.66;5025928;28;20037;-61
2023/04/06 11:27:45;;;;;;;8.70;5.40;;;;;;;10.70;31.57;97365.00;5027428;28;20072;-58
2023/04/06 11:30:13;;;;;;;11.90;6.15;;;;;;;10.62;31.71;97365.44;5032145;28;20045;-59
2023/04/06 11:32:44;;;;;;;7.65;4.80;;;;;;;10.89;30.84;97364.66;5021064;28;20270;-57
2023/04/06 11:35:30;;;;;;;9.02;5.85;;;;;;;10.98;30.47;97363.13;5028033;28;20531;-59
2023/04/06 11:37:57;;;;;;;10.88;5.32;;;;;;;11.02;30.53;97355.31;5031429;28;20160;-60
2023/04/06 11:40:27;;;;;;;8.95;5.53;;;;;;;10.90;29.86;97348.16;5027504;28;20056;-58
2023/04/06 11:42:55;;;;;;;10.35;5.78;;;;;;;11.14;31.45;97356.00;5028956;28;20449;-59